Time;durP1;ratioP1;P1;durP2;ratioP2;P2;SDS_P1;SDS_P2;PMS_P1;PMS_P2;Temp;Humidity;BMP_temperature;BMP_pressure;BME280_temperature;BME280_humidity;BME280_pressure;Samples;Min_cycle;Max_cycle;Signal;HPM_P1;HPM_P2
2022/05/27 00:00:41;;;;;;;1.83;0.73;;;16.40;91.80;;;;;;6178445;28;20536;-86
2022/05/27 00:03:42;;;;;;;2.15;0.60;;;16.30;92.20;;;;;;6179911;28;20066;-87
2022/05/27 00:06:46;;;;;;;6.00;2.72;;;16.30;91.90;;;;;;6179751;28;20058;-86
2022/05/27 00:09:47;;;;;;;1.05;0.65;;;16.30;92.10;;;;;;6183650;28;20130;-86
2022/05/27 00:12:49;;;;;;;2.72;0.73;;;16.30;92.10;;;;;;6183801;28;20043;-86
2022/05/27 00:15:51;;;;;;;2.47;0.80;;;16.30;92.20;;;;;;6183605;28;20078;-85
2022/05/27 00:18:53;;;;;;;4.25;0.70;;;16.20;92.30;;;;;;6183577;28;20126;-86
2022/05/27 00:21:56;;;;;;;2.83;0.80;;;16.20;92.30;;;;;;6192507;28;20074;-84
2022/05/27 00:24:58;;;;;;;2.90;0.90;;;16.20;92.40;;;;;;6183687;28;20046;-85
2022/05/27 00:28:00;;;;;;;5.07;1.27;;;16.20;92.40;;;;;;6182122;28;20082;-85
2022/05/27 00:31:03;;;;;;;2.78;0.77;;;16.20;92.50;;;;;;6181304;28;20157;-85
2022/05/27 00:34:05;;;;;;;0.98;0.75;;;16.20;92.50;;;;;;6182003;28;20070;-84
2022/05/27 00:37:08;;;;;;;6.22;0.80;;;16.20;92.50;;;;;;6183181;28;20058;-85
2022/05/27 00:40:11;;;;;;;2.65;0.75;;;16.10;92.60;;;;;;6186628;28;20056;-84
2022/05/27 00:43:13;;;;;;;4.82;0.70;;;16.10;92.70;;;;;;6215448;28;20057;-85
2022/05/27 00:46:19;;;;;;;4.82;1.20;;;16.10;92.80;;;;;;6206490;28;20050;-85
2022/05/27 00:49:26;;;;;;;1.63;0.68;;;16.10;92.90;;;;;;6206219;28;20133;-83
2022/05/27 00:52:43;;;;;;;3.85;1.00;;;16.00;92.90;;;;;;6229764;28;20064;-85
2022/05/27 00:55:48;;;;;;;1.83;0.75;;;16.00;93.00;;;;;;6230404;28;20520;-85
2022/05/27 00:58:56;;;;;;;1.88;0.85;;;16.00;93.20;;;;;;6229576;28;20049;-84
2022/05/27 01:01:59;;;;;;;1.52;1.00;;;15.90;93.30;;;;;;6228955;28;20125;-85
2022/05/27 01:05:02;;;;;;;1.92;0.93;;;15.90;93.40;;;;;;6229650;28;20046;-85
2022/05/27 01:08:09;;;;;;;2.30;1.13;;;15.80;93.40;;;;;;6229646;28;20448;-87
2022/05/27 01:11:22;;;;;;;2.97;0.80;;;15.80;93.50;;;;;;6228505;28;20053;-85
2022/05/27 01:14:33;;;;;;;1.65;0.93;;;15.80;93.60;;;;;;6228476;28;20095;-85
2022/05/27 01:17:44;;;;;;;1.95;1.08;;;15.80;93.60;;;;;;6227901;28;20048;-85
2022/05/27 01:20:53;;;;;;;1.77;0.80;;;15.80;93.70;;;;;;6228467;28;20041;-86
2022/05/27 01:24:23;;;;;;;2.40;0.93;;;15.80;93.70;;;;;;6229049;28;20046;-84
2022/05/27 01:27:47;;;;;;;2.67;1.05;;;15.80;93.90;;;;;;6228377;28;20050;-84
2022/05/27 01:30:54;;;;;;;4.82;1.45;;;15.80;93.90;;;;;;6228518;28;20049;-85
2022/05/27 01:34:08;;;;;;;2.25;0.80;;;15.80;94.00;;;;;;6227466;28;20050;-85
2022/05/27 01:37:16;;;;;;;2.53;1.00;;;15.70;94.00;;;;;;6228444;28;20157;-86
2022/05/27 01:40:27;;;;;;;4.07;1.13;;;15.80;94.00;;;;;;6228457;28;20132;-83
2022/05/27 01:43:37;;;;;;;6.95;1.10;;;15.80;94.00;;;;;;6230425;28;20072;-85
2022/05/27 01:46:43;;;;;;;4.20;0.95;;;15.80;94.10;;;;;;6229346;28;20062;-84
2022/05/27 01:49:53;;;;;;;5.05;1.70;;;15.70;94.00;;;;;;6229431;28;20529;-83
2022/05/27 01:53:00;;;;;;;3.03;1.10;;;15.80;94.20;;;;;;6229340;28;20108;-83
2022/05/27 01:56:10;;;;;;;3.67;1.17;;;15.70;94.20;;;;;;6234119;28;20136;-83
2022/05/27 01:59:16;;;;;;;2.33;0.98;;;15.70;94.30;;;;;;6230323;28;20505;-84
2022/05/27 02:02:23;;;;;;;1.35;1.00;;;15.60;94.30;;;;;;6230132;28;20121;-84
2022/05/27 02:05:31;;;;;;;2.25;1.13;;;15.60;94.40;;;;;;6229076;28;20049;-85
2022/05/27 02:08:37;;;;;;;2.88;1.15;;;15.60;94.50;;;;;;6229335;28;20060;-84
2022/05/27 02:11:42;;;;;;;4.03;1.15;;;15.60;94.60;;;;;;6230832;28;20056;-85
2022/05/27 02:14:47;;;;;;;2.40;0.98;;;15.50;94.70;;;;;;6230077;28;20041;-84
2022/05/27 02:17:55;;;;;;;3.47;1.00;;;15.50;94.80;;;;;;6229832;28;20521;-84
2022/05/27 02:21:00;;;;;;;2.33;1.13;;;15.50;94.80;;;;;;6230693;28;20757;-84
2022/05/27 02:24:08;;;;;;;6.25;2.22;;;15.50;94.90;;;;;;6231175;28;20207;-85
2022/05/27 02:27:16;;;;;;;4.40;1.10;;;15.40;95.00;;;;;;6229892;28;20493;-84
2022/05/27 02:30:22;;;;;;;2.35;1.00;;;15.50;95.10;;;;;;6229559;28;20046;-85
2022/05/27 02:36:53;;;;;;;2.28;0.90;;;15.50;95.30;;;;;;6229192;28;20045;-85
2022/05/27 02:39:56;;;;;;;5.43;1.23;;;15.40;95.30;;;;;;6229574;28;20057;-85
2022/05/27 02:43:08;;;;;;;2.42;0.82;;;15.40;95.30;;;;;;6209773;28;20197;-84
2022/05/27 02:46:23;;;;;;;1.80;1.02;;;15.30;95.40;;;;;;6205011;28;20141;-85
2022/05/27 02:49:33;;;;;;;2.40;1.00;;;15.30;95.50;;;;;;6205328;28;20034;-85
2022/05/27 02:52:43;;;;;;;2.65;0.90;;;15.30;95.60;;;;;;6205035;28;20453;-85
2022/05/27 02:55:54;;;;;;;3.13;0.98;;;15.40;95.70;;;;;;6206672;28;20054;-84
2022/05/27 02:58:56;;;;;;;2.33;1.20;;;15.30;95.70;;;;;;6206081;28;20118;-85
2022/05/27 03:02:12;;;;;;;4.45;1.60;;;15.30;95.80;;;;;;6205944;28;20061;-84
2022/05/27 03:05:19;;;;;;;1.25;0.80;;;15.30;95.90;;;;;;6205727;28;20042;-84
2022/05/27 03:08:26;;;;;;;5.60;1.27;;;15.40;95.90;;;;;;6207699;28;20051;-84
2022/05/27 03:11:37;;;;;;;5.18;1.63;;;15.40;95.80;;;;;;6207381;28;20060;-84
2022/05/27 03:15:03;;;;;;;3.10;1.30;;;15.50;95.80;;;;;;6204484;28;20070;-83
2022/05/27 03:18:17;;;;;;;3.75;1.40;;;15.50;95.80;;;;;;6202948;28;20054;-84
2022/05/27 03:21:27;;;;;;;2.25;1.42;;;15.60;95.70;;;;;;6203488;28;20173;-86
2022/05/27 03:24:39;;;;;;;2.97;1.33;;;15.70;95.70;;;;;;6204664;28;20055;-87
2022/05/27 03:27:47;;;;;;;8.85;1.60;;;15.50;95.70;;;;;;6205402;28;20065;-85
2022/05/27 03:31:03;;;;;;;2.13;1.48;;;15.70;95.80;;;;;;6205081;28;20047;-86
2022/05/27 03:34:09;;;;;;;6.63;2.17;;;15.70;95.80;;;;;;6203647;28;20057;-84
2022/05/27 03:37:17;;;;;;;2.67;1.70;;;15.60;95.80;;;;;;6203877;28;20049;-84
2022/05/27 03:40:23;;;;;;;;;;;15.80;95.70;;;;;;6205184;28;20148;-84
2022/05/27 03:43:27;;;;;;;3.17;1.75;;;16.00;95.70;;;;;;6207138;28;19933;-84
2022/05/27 03:46:30;;;;;;;3.00;1.75;;;16.20;95.20;;;;;;6209807;28;20149;-84
2022/05/27 03:49:32;;;;;;;3.03;1.67;;;16.30;94.90;;;;;;6210185;28;20046;-86
2022/05/27 03:52:39;;;;;;;6.75;1.65;;;16.50;94.70;;;;;;6208543;28;20482;-85
2022/05/27 03:55:44;;;;;;;2.72;1.33;;;16.70;94.40;;;;;;6210579;28;20189;-84
2022/05/27 03:58:46;;;;;;;9.77;2.20;;;16.70;94.20;;;;;;6209619;28;20529;-83
2022/05/27 04:01:50;;;;;;;5.18;1.85;;;16.80;94.10;;;;;;6213201;28;20060;-84
2022/05/27 04:04:52;;;;;;;4.07;1.75;;;16.80;93.80;;;;;;6208283;28;20042;-84
2022/05/27 04:07:55;;;;;;;5.22;2.15;;;16.90;93.60;;;;;;6208610;28;20058;-84
2022/05/27 04:11:02;;;;;;;7.45;2.00;;;17.00;93.50;;;;;;6216347;28;20050;-83
2022/05/27 04:14:17;;;;;;;6.13;2.33;;;17.10;93.30;;;;;;6209960;28;20050;-83
2022/05/27 04:17:44;;;;;;;3.80;1.63;;;17.10;93.20;;;;;;6211098;28;20042;-83
2022/05/27 04:21:20;;;;;;;6.75;2.13;;;17.20;93.10;;;;;;6211395;28;20057;-83
2022/05/27 04:47:29;;;;;;;2.38;1.52;;;17.60;92.20;;;;;;6092349;29;20049;-84
2022/05/27 04:50:31;;;;;;;5.03;1.63;;;17.70;92.00;;;;;;6110387;29;20054;-83
2022/05/27 04:53:33;;;;;;;3.15;1.77;;;17.70;91.90;;;;;;6181565;28;20050;-84
2022/05/27 04:56:35;;;;;;;4.65;1.80;;;17.60;91.90;;;;;;6203982;28;20060;-82
2022/05/27 04:59:39;;;;;;;4.05;1.58;;;17.70;91.70;;;;;;6195787;28;20050;-83
2022/05/27 05:02:48;;;;;;;3.80;1.67;;;17.70;91.70;;;;;;6201993;28;20050;-84
2022/05/27 05:05:49;;;;;;;3.08;1.40;;;17.80;91.70;;;;;;6203243;28;20452;-84
2022/05/27 05:08:54;;;;;;;5.25;1.27;;;17.80;91.60;;;;;;6200824;28;20478;-83
2022/05/27 05:11:57;;;;;;;6.32;1.90;;;17.80;91.60;;;;;;6206685;28;20097;-86
2022/05/27 05:14:59;;;;;;;3.47;1.50;;;17.80;91.70;;;;;;6208855;28;20053;-85
2022/05/27 05:18:02;;;;;;;4.05;1.40;;;17.70;91.60;;;;;;6207997;28;20545;-82
2022/05/27 05:21:04;;;;;;;3.08;1.50;;;17.70;91.70;;;;;;6205048;28;20038;-83
2022/05/27 05:24:06;;;;;;;4.97;1.63;;;17.70;91.60;;;;;;6203874;28;20055;-84
2022/05/27 05:27:08;;;;;;;2.15;1.20;;;17.70;91.40;;;;;;6204220;28;20061;-85
2022/05/27 05:30:14;;;;;;;4.47;1.70;;;17.80;91.40;;;;;;6196624;28;20043;-82
2022/05/27 05:33:17;;;;;;;1.70;1.17;;;17.80;91.30;;;;;;6200712;28;20477;-82
2022/05/27 05:36:19;;;;;;;2.38;1.23;;;17.80;91.20;;;;;;6201365;28;20188;-85
2022/05/27 05:39:20;;;;;;;4.43;1.25;;;17.80;91.10;;;;;;6201663;28;20055;-85
2022/05/27 05:42:23;;;;;;;4.05;1.10;;;17.80;91.00;;;;;;6201889;28;20046;-84
2022/05/27 05:45:25;;;;;;;4.88;1.50;;;17.80;91.00;;;;;;6205476;28;20054;-84
2022/05/27 05:48:28;;;;;;;1.88;0.88;;;17.90;91.00;;;;;;6200918;28;20066;-83
2022/05/27 05:51:31;;;;;;;3.17;1.73;;;18.00;90.90;;;;;;6200233;28;20529;-84
2022/05/27 05:54:33;;;;;;;2.90;1.38;;;18.10;90.90;;;;;;6200685;28;20046;-85
2022/05/27 05:57:38;;;;;;;4.15;1.20;;;18.10;90.60;;;;;;6200556;28;20042;-84
2022/05/27 06:00:40;;;;;;;1.58;0.90;;;18.10;90.60;;;;;;6192890;28;20062;-86
2022/05/27 06:03:43;;;;;;;5.75;1.30;;;18.00;90.60;;;;;;6200388;28;20421;-85
2022/05/27 06:06:45;;;;;;;3.95;1.10;;;18.00;90.60;;;;;;6200447;28;20149;-85
2022/05/27 06:09:46;;;;;;;4.15;1.00;;;17.90;90.60;;;;;;6200517;28;20124;-86
2022/05/27 06:12:49;;;;;;;4.43;1.15;;;18.00;90.60;;;;;;6199905;28;20072;-84
2022/05/27 06:15:51;;;;;;;5.22;1.65;;;18.00;90.60;;;;;;6202198;28;20129;-86
2022/05/27 06:18:54;;;;;;;5.22;1.23;;;18.10;90.60;;;;;;6199932;28;20132;-84
2022/05/27 06:21:56;;;;;;;4.55;1.33;;;18.10;90.40;;;;;;6201068;28;20132;-86
2022/05/27 06:24:59;;;;;;;9.15;1.90;;;18.10;90.30;;;;;;6200995;28;20125;-86
2022/05/27 06:34:38;;;;;;;6.20;1.42;;;18.20;90.10;;;;;;6200845;28;20051;-84
2022/05/27 06:37:40;;;;;;;5.82;1.52;;;18.30;90.10;;;;;;6253565;23;20050;-80
2022/05/27 06:40:42;;;;;;;2.42;1.25;;;18.30;89.80;;;;;;6255182;28;20117;-82
2022/05/27 06:43:45;;;;;;;2.72;1.85;;;18.40;89.50;;;;;;6255415;28;20131;-82
2022/05/27 06:46:50;;;;;;;6.10;2.65;;;18.40;89.40;;;;;;6254600;28;20057;-82
2022/05/27 06:49:53;;;;;;;1.90;1.27;;;18.40;89.30;;;;;;6254537;28;20123;-83
2022/05/27 06:52:55;;;;;;;2.65;1.50;;;18.40;89.00;;;;;;6254491;28;20093;-82
2022/05/27 06:55:57;;;;;;;7.25;1.10;;;18.40;89.20;;;;;;6253967;28;20049;-81
2022/05/27 06:58:58;;;;;;;1.95;1.40;;;18.50;89.30;;;;;;6251253;28;20041;-83
2022/05/27 07:02:00;;;;;;;4.22;1.58;;;18.40;89.60;;;;;;6252522;28;20056;-83
2022/05/27 07:05:04;;;;;;;2.60;1.60;;;18.50;88.80;;;;;;6229303;28;20049;-83
2022/05/27 07:08:07;;;;;;;1.83;1.13;;;18.50;89.00;;;;;;6228835;28;20057;-84
2022/05/27 07:11:10;;;;;;;4.95;1.45;;;18.60;88.80;;;;;;6229432;28;20056;-83
2022/05/27 07:14:13;;;;;;;3.63;1.55;;;18.60;88.70;;;;;;6230050;28;20073;-83
2022/05/27 07:17:15;;;;;;;7.18;1.90;;;18.70;88.60;;;;;;6227484;28;20046;-82
2022/05/27 07:20:19;;;;;;;4.07;1.50;;;18.70;88.50;;;;;;6242262;28;20052;-83
2022/05/27 07:23:20;;;;;;;2.03;1.25;;;18.60;88.80;;;;;;6275566;28;20123;-83
2022/05/27 07:26:24;;;;;;;3.25;1.20;;;18.60;88.80;;;;;;6246561;28;20048;-82
2022/05/27 07:29:25;;;;;;;2.55;1.17;;;18.60;88.80;;;;;;6244147;28;20073;-84
2022/05/27 07:32:27;;;;;;;4.40;1.60;;;18.60;88.80;;;;;;6246889;28;20049;-84
2022/05/27 07:35:30;;;;;;;5.57;1.52;;;18.50;89.00;;;;;;6246563;28;20134;-85
2022/05/27 07:38:32;;;;;;;3.55;1.88;;;18.60;89.00;;;;;;6245357;28;20053;-85
2022/05/27 07:41:35;;;;;;;2.47;1.25;;;18.70;88.80;;;;;;6245198;28;20447;-86
2022/05/27 07:44:36;;;;;;;5.20;1.20;;;18.70;88.80;;;;;;6245755;28;20408;-84
2022/05/27 07:47:39;;;;;;;9.90;1.35;;;18.70;88.40;;;;;;6246206;28;20131;-86
2022/05/27 07:50:42;;;;;;;3.08;1.20;;;18.70;88.30;;;;;;6245254;28;20041;-85
2022/05/27 07:53:44;;;;;;;4.45;1.58;;;18.70;88.50;;;;;;6245113;28;20099;-86
2022/05/27 07:56:46;;;;;;;4.15;1.10;;;18.90;89.10;;;;;;6245491;28;22338;-86
2022/05/27 07:59:48;;;;;;;2.33;0.80;;;19.10;88.10;;;;;;6246410;28;20048;-80
2022/05/27 08:02:49;;;;;;;2.28;1.00;;;19.30;87.10;;;;;;6247971;28;20108;-80
2022/05/27 08:05:53;;;;;;;6.60;1.75;;;19.40;86.30;;;;;;6246566;28;21046;-80
2022/05/27 08:08:55;;;;;;;5.35;1.25;;;19.50;86.20;;;;;;6247633;28;20059;-81
2022/05/27 08:11:57;;;;;;;3.28;1.35;;;19.60;85.90;;;;;;6247548;28;20053;-81
2022/05/27 08:14:58;;;;;;;8.52;3.92;;;19.70;85.50;;;;;;6257667;28;20136;-81
2022/05/27 08:18:00;;;;;;;2.20;1.30;;;19.90;84.40;;;;;;6252195;28;20505;-81
2022/05/27 08:21:04;;;;;;;6.25;1.67;;;20.00;83.90;;;;;;6252109;28;20041;-82
2022/05/27 08:24:07;;;;;;;2.80;1.33;;;20.00;83.90;;;;;;6252083;28;20162;-82
2022/05/27 08:27:09;;;;;;;5.28;1.10;;;20.00;84.00;;;;;;6250932;28;20054;-81
2022/05/27 08:30:14;;;;;;;5.13;1.13;;;20.10;83.60;;;;;;6247415;28;20527;-82
2022/05/27 08:33:16;;;;;;;2.95;1.50;;;20.30;83.00;;;;;;6253183;28;20143;-82
2022/05/27 08:39:46;;;;;;;3.47;1.35;;;20.50;81.90;;;;;;6257433;28;20057;-82
2022/05/27 08:42:58;;;;;;;1.83;1.38;;;20.70;81.60;;;;;;6255233;28;20049;-82
2022/05/27 08:46:07;;;;;;;2.33;1.35;;;20.70;81.80;;;;;;6253499;28;20516;-83
2022/05/27 08:49:14;;;;;;;3.35;1.52;;;20.60;81.80;;;;;;6253374;28;20056;-82
2022/05/27 08:52:24;;;;;;;3.30;1.50;;;20.70;81.60;;;;;;6228603;28;20060;-82
2022/05/27 09:02:20;;;;;;;2.42;1.00;;;20.60;81.40;;;;;;6250213;28;20505;-84
2022/05/27 09:05:27;;;;;;;1.57;0.93;;;20.50;81.80;;;;;;6248683;28;20077;-82
2022/05/27 09:08:30;;;;;;;1.90;1.03;;;20.70;81.50;;;;;;6233738;28;20490;-83
2022/05/27 09:11:41;;;;;;;2.38;1.10;;;20.90;80.40;;;;;;6241223;28;20052;-85
2022/05/27 09:14:46;;;;;;;1.95;0.88;;;21.00;79.10;;;;;;6249680;28;20535;-86
2022/05/27 09:17:58;;;;;;;3.65;0.90;;;21.30;78.40;;;;;;6249836;28;20190;-86
2022/05/27 09:21:08;;;;;;;1.02;0.52;;;22.00;76.70;;;;;;6249802;28;20041;-84
2022/05/27 09:24:30;;;;;;;0.93;0.70;;;23.40;73.50;;;;;;6246599;28;20060;-85
2022/05/27 09:27:38;;;;;;;1.77;0.80;;;25.10;67.00;;;;;;6250118;28;20139;-83
2022/05/27 09:30:40;;;;;;;5.75;0.80;;;25.50;63.00;;;;;;6247522;28;20065;-83
2022/05/27 09:33:44;;;;;;;1.35;0.80;;;25.30;61.60;;;;;;6252832;28;20045;-82
2022/05/27 09:36:50;;;;;;;3.13;1.13;;;25.20;61.10;;;;;;6250285;28;20049;-83
2022/05/27 09:39:56;;;;;;;0.93;0.50;;;25.40;60.40;;;;;;6249466;28;20060;-82
2022/05/27 09:43:05;;;;;;;1.65;0.70;;;26.00;58.60;;;;;;6249376;28;20041;-83
2022/05/27 09:46:11;;;;;;;3.08;0.70;;;26.60;57.10;;;;;;6271369;28;20076;-84
2022/05/27 09:49:13;;;;;;;3.17;0.90;;;26.70;54.30;;;;;;6250677;28;20048;-83
2022/05/27 09:52:15;;;;;;;2.80;0.77;;;26.60;53.40;;;;;;6251179;28;20046;-82
2022/05/27 09:55:24;;;;;;;1.48;0.88;;;26.50;53.90;;;;;;6250966;28;20092;-83
2022/05/27 09:58:28;;;;;;;2.67;0.70;;;26.30;53.60;;;;;;6249090;28;20049;-86
2022/05/27 10:01:30;;;;;;;1.67;0.75;;;26.00;54.50;;;;;;6248672;28;20124;-87
2022/05/27 10:04:32;;;;;;;1.85;0.73;;;25.70;55.60;;;;;;6249144;28;20202;-86
2022/05/27 10:07:38;;;;;;;1.45;0.80;;;25.70;55.80;;;;;;6243310;28;20586;-87
2022/05/27 10:10:42;;;;;;;1.20;0.70;;;25.30;55.90;;;;;;6248525;28;20064;-87
2022/05/27 10:13:44;;;;;;;1.33;0.85;;;24.90;56.80;;;;;;6248701;28;20046;-85
2022/05/27 10:17:01;;;;;;;1.48;0.80;;;24.40;57.60;;;;;;6248525;28;20530;-85
2022/05/27 10:20:19;;;;;;;2.40;0.80;;;24.30;58.20;;;;;;6248559;28;20420;-87
2022/05/27 10:23:26;;;;;;;1.17;0.60;;;24.40;58.60;;;;;;6227284;28;20428;-88
2022/05/27 10:26:32;;;;;;;1.33;0.43;;;24.30;58.40;;;;;;6223835;28;20054;-87
2022/05/27 10:29:35;;;;;;;2.90;0.93;;;24.40;58.90;;;;;;6249209;28;20068;-87
2022/05/27 10:32:39;;;;;;;4.30;1.30;;;24.50;58.70;;;;;;6251985;28;20481;-83
2022/05/27 10:35:41;;;;;;;3.40;0.98;;;24.70;58.60;;;;;;6248335;28;20056;-82
2022/05/27 10:38:50;;;;;;;9.63;1.10;;;24.70;58.00;;;;;;6223277;28;20042;-83
2022/05/27 10:42:13;;;;;;;0.70;0.50;;;25.00;58.30;;;;;;6223896;28;20102;-82
2022/05/27 10:45:20;;;;;;;2.67;0.70;;;25.60;56.80;;;;;;6229594;28;20046;-83
2022/05/27 10:48:56;;;;;;;1.85;0.70;;;25.90;53.60;;;;;;6225945;28;20050;-82
2022/05/27 10:52:17;;;;;;;3.22;0.70;;;25.80;53.40;;;;;;6222999;28;20172;-82
2022/05/27 10:55:24;;;;;;;4.05;0.68;;;25.80;53.10;;;;;;6222988;28;20052;-83
2022/05/27 11:02:28;;;;;;;1.00;0.60;;;25.50;53.10;;;;;;6246869;28;20041;-83
2022/05/27 11:05:42;;;;;;;2.63;0.82;;;25.40;53.50;;;;;;6247135;28;20045;-83
2022/05/27 11:08:55;;;;;;;2.95;0.43;;;25.40;54.10;;;;;;6226150;28;20045;-83
2022/05/27 11:12:07;;;;;;;1.83;0.52;;;25.50;54.90;;;;;;6222787;28;20416;-83
2022/05/27 11:15:19;;;;;;;2.25;0.82;;;25.70;54.40;;;;;;6222468;28;20052;-83
2022/05/27 11:31:50;;;;;;;1.20;0.60;;;24.80;57.60;;;;;;6085049;29;20055;-83
2022/05/27 11:44:04;;;;;;;;;;;;;;;;;;;;;
2022/05/27 11:47:54;;;;;;;2.53;0.63;;;23.80;61.00;;;;;;6017584;29;20076;-83
2022/05/27 11:51:29;;;;;;;2.00;0.63;;;23.60;61.70;;;;;;6031941;29;20139;-85
2022/05/27 11:54:52;;;;;;;1.00;0.75;;;23.40;62.10;;;;;;6131046;28;20070;-86
2022/05/27 11:58:09;;;;;;;3.55;0.73;;;23.40;62.70;;;;;;6170919;28;20057;-82
2022/05/27 12:01:21;;;;;;;1.15;0.80;;;23.10;63.60;;;;;;6189376;28;20049;-84
2022/05/27 12:04:36;;;;;;;1.27;0.80;;;22.90;64.50;;;;;;6200903;28;20130;-83
2022/05/27 12:07:45;;;;;;;1.70;0.88;;;22.60;64.40;;;;;;6200594;28;20497;-87
2022/05/27 12:10:50;;;;;;;1.65;0.75;;;22.60;65.10;;;;;;6201124;28;20058;-89
2022/05/27 12:13:54;;;;;;;1.60;0.88;;;22.60;64.00;;;;;;6201987;28;20068;-83
2022/05/27 12:16:59;;;;;;;2.45;0.68;;;22.60;63.90;;;;;;6207489;28;20112;-83
2022/05/27 12:20:03;;;;;;;1.00;0.47;;;22.50;64.50;;;;;;6166368;28;1053946;-85
2022/05/27 12:23:08;;;;;;;2.45;0.60;;;22.40;64.90;;;;;;6202475;28;20057;-85
2022/05/27 12:26:10;;;;;;;1.35;0.80;;;22.30;65.10;;;;;;6202940;28;20444;-86
2022/05/27 12:29:14;;;;;;;2.20;0.85;;;22.10;65.80;;;;;;6203120;28;20108;-85
2022/05/27 12:32:18;;;;;;;4.25;0.93;;;22.10;66.50;;;;;;6202452;28;20492;-82
2022/05/27 12:35:44;;;;;;;1.27;0.77;;;22.10;67.20;;;;;;6202499;28;20046;-82
2022/05/27 12:38:48;;;;;;;1.83;0.70;;;22.10;66.60;;;;;;6241825;23;20057;-82
2022/05/27 12:42:06;;;;;;;1.38;0.73;;;22.00;67.00;;;;;;6230964;28;20417;-83
2022/05/27 12:45:23;;;;;;;1.90;0.55;;;22.00;67.50;;;;;;6227269;28;20628;-84
2022/05/27 12:48:32;;;;;;;1.30;0.97;;;22.20;67.20;;;;;;6209336;28;20064;-82
2022/05/27 12:51:39;;;;;;;1.38;0.80;;;22.30;67.40;;;;;;6181496;28;20582;-81
2022/05/27 12:55:04;;;;;;;1.67;0.90;;;22.50;67.10;;;;;;6180057;28;20110;-82
2022/05/27 13:01:32;;;;;;;2.03;0.80;;;22.80;65.90;;;;;;6182127;28;20065;-81
2022/05/27 13:04:50;;;;;;;1.73;0.80;;;22.80;66.00;;;;;;6204049;28;20060;-82
2022/05/27 13:08:10;;;;;;;0.95;0.82;;;22.80;65.90;;;;;;6203868;28;20042;-82
2022/05/27 13:11:15;;;;;;;2.75;0.77;;;22.60;67.00;;;;;;6202436;28;20054;-82
2022/05/27 13:14:21;;;;;;;2.80;0.65;;;22.50;66.80;;;;;;6182231;28;20070;-83
2022/05/27 13:17:31;;;;;;;2.83;0.43;;;22.30;66.90;;;;;;6182298;28;20173;-84
2022/05/27 13:20:51;;;;;;;3.30;0.90;;;22.20;66.90;;;;;;6183580;28;20473;-81
2022/05/27 13:23:58;;;;;;;3.42;0.75;;;21.90;67.60;;;;;;6181524;28;20154;-82
2022/05/27 13:27:05;;;;;;;1.63;0.80;;;21.60;69.00;;;;;;6181536;28;20046;-81
2022/05/27 13:30:10;;;;;;;1.80;0.52;;;21.60;69.90;;;;;;6202016;28;20138;-81
2022/05/27 13:33:13;;;;;;;4.30;0.50;;;21.60;70.10;;;;;;6204279;28;20042;-80
2022/05/27 13:36:19;;;;;;;2.70;0.60;;;21.70;70.20;;;;;;6202475;28;20490;-82
2022/05/27 13:39:27;;;;;;;1.60;0.77;;;21.60;70.00;;;;;;6181979;28;20422;-82
2022/05/27 13:42:33;;;;;;;2.13;0.50;;;21.60;70.20;;;;;;6178144;28;20179;-82
2022/05/27 13:45:42;;;;;;;1.85;0.63;;;21.70;70.00;;;;;;6168615;28;20073;-82
2022/05/27 13:48:50;;;;;;;2.80;0.77;;;21.60;70.00;;;;;;6181357;28;20138;-81
2022/05/27 13:51:52;;;;;;;1.55;0.70;;;21.50;70.10;;;;;;6181186;28;20139;-81
2022/05/27 13:55:04;;;;;;;1.23;0.57;;;21.40;70.80;;;;;;6180857;28;20046;-82
2022/05/27 13:58:06;;;;;;;4.97;0.95;;;21.30;71.30;;;;;;6181082;28;20053;-82
2022/05/27 14:01:10;;;;;;;2.00;0.93;;;21.20;71.70;;;;;;6165190;28;20039;-80
2022/05/27 14:04:24;;;;;;;1.88;0.63;;;21.30;72.10;;;;;;6183498;28;20050;-81
2022/05/27 14:07:30;;;;;;;2.22;0.55;;;21.30;72.10;;;;;;6181372;28;20130;-83
2022/05/27 14:10:42;;;;;;;0.55;0.38;;;21.30;72.10;;;;;;6183260;28;20513;-82
2022/05/27 14:13:50;;;;;;;1.85;0.60;;;21.60;72.10;;;;;;6185579;28;20047;-81
2022/05/27 14:16:52;;;;;;;1.27;0.80;;;22.00;70.90;;;;;;6182152;28;20070;-82
2022/05/27 14:20:01;;;;;;;1.85;0.88;;;22.20;70.10;;;;;;6152875;29;20062;-82
2022/05/27 14:23:04;;;;;;;3.35;1.10;;;22.30;69.60;;;;;;6195047;28;20042;-83
2022/05/27 14:26:07;;;;;;;2.42;0.90;;;22.20;69.70;;;;;;6183053;28;20043;-82
2022/05/27 14:29:14;;;;;;;1.65;0.57;;;22.10;70.20;;;;;;6202376;28;20034;-82
2022/05/27 14:32:22;;;;;;;1.70;0.65;;;22.00;70.70;;;;;;6212110;28;20474;-82
2022/05/27 14:35:25;;;;;;;;;;;22.10;70.80;;;;;;6220579;28;20116;-81
2022/05/27 14:38:32;;;;;;;2.88;0.70;;;22.40;70.50;;;;;;6220550;28;19977;-80
2022/05/27 14:41:43;;;;;;;1.23;0.60;;;22.80;69.50;;;;;;6217800;28;20171;-82
2022/05/27 14:44:47;;;;;;;2.58;0.98;;;22.80;69.10;;;;;;6211860;28;20057;-82
2022/05/27 14:47:49;;;;;;;1.10;0.60;;;22.70;69.20;;;;;;6212337;28;20058;-81
2022/05/27 14:50:50;;;;;;;1.58;0.50;;;22.50;69.30;;;;;;6211690;28;20057;-81
2022/05/27 14:53:54;;;;;;;0.85;0.70;;;22.70;69.20;;;;;;6211865;28;20069;-81
2022/05/27 14:57:19;;;;;;;3.53;0.40;;;22.70;68.70;;;;;;6205144;28;20185;-83
2022/05/27 15:00:30;;;;;;;3.65;0.57;;;22.60;69.40;;;;;;6203959;28;20050;-83
2022/05/27 15:03:35;;;;;;;1.33;0.70;;;22.40;70.10;;;;;;6203508;28;20105;-82
2022/05/27 15:06:38;;;;;;;1.23;0.68;;;22.20;70.40;;;;;;6203767;28;20077;-82
2022/05/27 15:09:40;;;;;;;4.47;0.47;;;22.10;71.40;;;;;;6205198;28;20057;-83
2022/05/27 15:12:43;;;;;;;2.85;0.82;;;22.10;72.00;;;;;;6204551;28;20054;-82
2022/05/27 15:15:45;;;;;;;4.90;0.73;;;22.20;72.60;;;;;;6210007;28;20145;-81
2022/05/27 15:18:51;;;;;;;2.75;0.70;;;22.30;72.90;;;;;;6208189;28;20043;-81
2022/05/27 15:21:57;;;;;;;2.00;0.70;;;22.30;73.20;;;;;;6207798;28;20421;-82
2022/05/27 15:25:02;;;;;;;2.38;0.60;;;22.30;72.60;;;;;;6210896;28;20102;-83
2022/05/27 15:34:58;;;;;;;2.00;0.75;;;22.70;72.60;;;;;;6199491;28;20046;-83
2022/05/27 15:38:01;;;;;;;1.10;0.60;;;22.90;72.00;;;;;;6189638;28;20479;-82
2022/05/27 15:41:05;;;;;;;1.48;0.65;;;23.00;71.00;;;;;;6184247;28;20053;-82
2022/05/27 15:44:08;;;;;;;6.40;1.25;;;22.80;70.90;;;;;;6183815;28;20046;-80
2022/05/27 15:47:10;;;;;;;1.38;0.77;;;22.70;71.30;;;;;;6194276;28;20050;-80
2022/05/27 15:50:13;;;;;;;2.53;1.52;;;22.90;71.90;;;;;;6206862;28;20043;-80
2022/05/27 15:53:17;;;;;;;3.65;1.10;;;23.00;72.00;;;;;;6207784;28;20043;-80
2022/05/27 15:56:19;;;;;;;0.82;0.40;;;23.00;72.20;;;;;;6208001;28;20116;-80
2022/05/27 15:59:22;;;;;;;1.10;0.50;;;22.90;72.00;;;;;;6205384;28;20093;-80
2022/05/27 16:02:24;;;;;;;3.35;0.50;;;22.90;72.50;;;;;;6208430;28;20189;-81
2022/05/27 16:05:26;;;;;;;2.28;0.82;;;22.80;72.30;;;;;;6215538;28;20048;-82
2022/05/27 16:08:28;;;;;;;0.63;0.40;;;22.80;72.50;;;;;;6216319;28;20141;-83
2022/05/27 16:11:29;;;;;;;0.52;0.45;;;22.80;73.90;;;;;;6216827;28;20309;-83
2022/05/27 16:14:33;;;;;;;0.63;0.60;;;22.80;73.20;;;;;;6218382;28;20077;-82
2022/05/27 16:17:54;;;;;;;0.40;0.35;;;22.80;73.80;;;;;;6222586;28;20110;-82
2022/05/27 16:20:56;;;;;;;2.05;0.40;;;23.00;73.30;;;;;;6215277;28;20050;-82
2022/05/27 16:23:59;;;;;;;1.70;0.60;;;23.10;72.60;;;;;;6220202;28;20100;-82
2022/05/27 16:27:01;;;;;;;1.55;0.60;;;23.20;73.00;;;;;;6218716;28;20580;-82
2022/05/27 16:30:08;;;;;;;2.30;0.65;;;23.10;72.70;;;;;;6218541;28;20102;-82
2022/05/27 16:33:10;;;;;;;1.15;0.50;;;23.00;72.50;;;;;;6193317;28;20066;-82
2022/05/27 16:36:11;;;;;;;1.58;0.90;;;22.90;73.00;;;;;;6206482;28;20050;-81
2022/05/27 16:39:14;;;;;;;2.63;0.63;;;22.80;74.00;;;;;;6216537;28;20066;-83
2022/05/27 16:42:16;;;;;;;1.23;0.80;;;22.70;73.70;;;;;;6218282;28;20054;-82
2022/05/27 16:45:21;;;;;;;0.98;0.55;;;22.60;74.10;;;;;;6216251;28;20070;-83
2022/05/27 16:48:23;;;;;;;2.78;0.75;;;22.50;74.10;;;;;;6213026;28;20135;-83
2022/05/27 16:51:25;;;;;;;4.05;0.75;;;22.50;74.50;;;;;;6222106;28;20074;-83
2022/05/27 16:54:27;;;;;;;2.95;0.90;;;22.50;74.60;;;;;;6208525;28;20056;-83
2022/05/27 16:57:29;;;;;;;5.50;0.70;;;22.50;73.30;;;;;;6206239;28;20154;-83
2022/05/27 17:00:32;;;;;;;2.75;1.17;;;22.50;73.90;;;;;;6206595;28;20057;-83
2022/05/27 17:03:34;;;;;;;1.83;0.70;;;22.50;74.30;;;;;;6209189;28;20046;-82
2022/05/27 17:06:36;;;;;;;1.48;0.80;;;22.40;73.50;;;;;;6197776;28;20425;-81
2022/05/27 17:09:38;;;;;;;2.30;0.80;;;22.40;74.10;;;;;;6211412;28;20078;-82
2022/05/27 17:12:40;;;;;;;2.53;0.60;;;22.40;74.10;;;;;;6187430;28;20038;-82
2022/05/27 17:15:43;;;;;;;2.30;0.77;;;22.40;73.20;;;;;;6208310;28;20046;-82
2022/05/27 17:18:46;;;;;;;1.60;0.60;;;22.40;70.30;;;;;;6208342;28;20406;-83
2022/05/27 17:21:47;;;;;;;2.55;0.70;;;22.30;70.60;;;;;;6209556;28;20054;-82
2022/05/27 17:24:49;;;;;;;3.65;0.68;;;22.10;70.70;;;;;;6222703;28;20046;-82
2022/05/27 17:27:51;;;;;;;3.33;0.70;;;22.00;71.00;;;;;;6206689;28;20058;-82
2022/05/27 17:30:54;;;;;;;3.00;0.73;;;21.80;70.80;;;;;;6207753;28;20399;-83